sensor_id;sensor_type;location;lat;lon;timestamp;P1;durP1;ratioP1;P2;durP2;ratioP2
25567;SDS011;13455;51.480;7.594;2022-07-06T00:02:00;5.53;;;1.70;;
25567;SDS011;13455;51.480;7.594;2022-07-06T00:04:26;4.25;;;1.70;;
25567;SDS011;13455;51.480;7.594;2022-07-06T00:06:52;6.95;;;1.85;;
25567;SDS011;13455;51.480;7.594;2022-07-06T00:09:18;5.95;;;1.67;;
25567;SDS011;13455;51.480;7.594;2022-07-06T00:11:44;7.10;;;1.58;;
25567;SDS011;13455;51.480;7.594;2022-07-06T00:14:10;4.33;;;1.57;;
25567;SDS011;13455;51.480;7.594;2022-07-06T00:16:36;6.15;;;1.80;;
25567;SDS011;13455;51.480;7.594;2022-07-06T00:19:02;6.38;;;1.80;;
25567;SDS011;13455;51.480;7.594;2022-07-06T00:21:28;5.38;;;1.88;;
25567;SDS011;13455;51.480;7.594;2022-07-06T00:23:54;4.90;;;1.70;;
25567;SDS011;13455;51.480;7.594;2022-07-06T00:26:20;6.32;;;1.80;;
25567;SDS011;13455;51.480;7.594;2022-07-06T00:28:46;8.88;;;1.75;;
25567;SDS011;13455;51.480;7.594;2022-07-06T00:31:12;3.77;;;1.40;;
25567;SDS011;13455;51.480;7.594;2022-07-06T00:33:38;4.70;;;1.60;;
25567;SDS011;13455;51.480;7.594;2022-07-06T00:36:04;4.80;;;1.73;;
25567;SDS011;13455;51.480;7.594;2022-07-06T00:38:31;5.75;;;2.00;;
25567;SDS011;13455;51.480;7.594;2022-07-06T00:40:57;4.20;;;1.90;;
25567;SDS011;13455;51.480;7.594;2022-07-06T00:43:23;6.50;;;1.90;;
25567;SDS011;13455;51.480;7.594;2022-07-06T00:45:49;4.22;;;1.77;;
25567;SDS011;13455;51.480;7.594;2022-07-06T00:48:15;5.70;;;1.75;;
25567;SDS011;13455;51.480;7.594;2022-07-06T00:50:41;7.65;;;1.80;;
25567;SDS011;13455;51.480;7.594;2022-07-06T00:53:08;6.32;;;1.75;;
25567;SDS011;13455;51.480;7.594;2022-07-06T00:55:35;6.72;;;1.77;;
25567;SDS011;13455;51.480;7.594;2022-07-06T00:58:02;5.50;;;1.90;;
25567;SDS011;13455;51.480;7.594;2022-07-06T01:00:29;6.95;;;1.70;;
25567;SDS011;13455;51.480;7.594;2022-07-06T01:02:55;5.80;;;1.67;;
25567;SDS011;13455;51.480;7.594;2022-07-06T01:05:22;4.35;;;1.65;;
25567;SDS011;13455;51.480;7.594;2022-07-06T01:07:48;5.35;;;1.70;;
25567;SDS011;13455;51.480;7.594;2022-07-06T01:10:15;6.13;;;1.70;;
25567;SDS011;13455;51.480;7.594;2022-07-06T01:12:42;4.77;;;1.50;;
25567;SDS011;13455;51.480;7.594;2022-07-06T01:15:12;4.70;;;1.58;;
25567;SDS011;13455;51.480;7.594;2022-07-06T01:17:39;5.60;;;1.73;;
25567;SDS011;13455;51.480;7.594;2022-07-06T01:22:37;7.15;;;1.50;;
25567;SDS011;13455;51.480;7.594;2022-07-06T01:25:04;5.73;;;1.60;;
25567;SDS011;13455;51.480;7.594;2022-07-06T01:27:30;6.27;;;1.60;;
25567;SDS011;13455;51.480;7.594;2022-07-06T01:29:57;5.32;;;1.67;;
25567;SDS011;13455;51.480;7.594;2022-07-06T01:32:24;4.30;;;1.70;;
25567;SDS011;13455;51.480;7.594;2022-07-06T01:34:50;5.53;;;1.80;;
25567;SDS011;13455;51.480;7.594;2022-07-06T01:37:16;4.05;;;1.70;;
25567;SDS011;13455;51.480;7.594;2022-07-06T01:39:42;4.38;;;1.50;;
25567;SDS011;13455;51.480;7.594;2022-07-06T01:42:08;6.03;;;2.03;;
25567;SDS011;13455;51.480;7.594;2022-07-06T01:44:34;4.97;;;1.90;;
25567;SDS011;13455;51.480;7.594;2022-07-06T01:47:00;7.87;;;1.97;;
25567;SDS011;13455;51.480;7.594;2022-07-06T01:49:28;4.80;;;1.80;;
25567;SDS011;13455;51.480;7.594;2022-07-06T01:51:54;7.63;;;1.80;;
25567;SDS011;13455;51.480;7.594;2022-07-06T01:54:20;4.78;;;2.00;;
25567;SDS011;13455;51.480;7.594;2022-07-06T01:56:46;4.97;;;2.05;;
25567;SDS011;13455;51.480;7.594;2022-07-06T01:59:12;4.93;;;1.88;;
25567;SDS011;13455;51.480;7.594;2022-07-06T02:01:38;5.20;;;1.90;;
25567;SDS011;13455;51.480;7.594;2022-07-06T02:04:04;4.68;;;1.88;;
25567;SDS011;13455;51.480;7.594;2022-07-06T02:06:30;3.55;;;1.70;;
25567;SDS011;13455;51.480;7.594;2022-07-06T02:08:56;5.45;;;1.88;;
25567;SDS011;13455;51.480;7.594;2022-07-06T02:11:22;4.70;;;1.85;;
25567;SDS011;13455;51.480;7.594;2022-07-06T02:13:48;5.97;;;1.80;;
25567;SDS011;13455;51.480;7.594;2022-07-06T02:16:14;4.53;;;1.70;;
25567;SDS011;13455;51.480;7.594;2022-07-06T02:18:40;7.90;;;1.98;;
25567;SDS011;13455;51.480;7.594;2022-07-06T02:21:06;3.40;;;1.50;;
25567;SDS011;13455;51.480;7.594;2022-07-06T02:23:32;4.35;;;1.80;;
25567;SDS011;13455;51.480;7.594;2022-07-06T02:26:00;5.88;;;1.80;;
25567;SDS011;13455;51.480;7.594;2022-07-06T02:28:26;4.00;;;1.60;;
25567;SDS011;13455;51.480;7.594;2022-07-06T02:30:52;5.75;;;1.90;;
25567;SDS011;13455;51.480;7.594;2022-07-06T02:33:18;5.55;;;1.85;;
25567;SDS011;13455;51.480;7.594;2022-07-06T02:35:44;3.85;;;1.60;;
25567;SDS011;13455;51.480;7.594;2022-07-06T02:38:10;5.18;;;1.73;;
25567;SDS011;13455;51.480;7.594;2022-07-06T02:40:36;5.07;;;1.70;;
25567;SDS011;13455;51.480;7.594;2022-07-06T02:43:03;4.95;;;1.70;;
25567;SDS011;13455;51.480;7.594;2022-07-06T02:45:30;4.95;;;1.65;;
25567;SDS011;13455;51.480;7.594;2022-07-06T02:47:56;6.68;;;1.80;;
25567;SDS011;13455;51.480;7.594;2022-07-06T02:50:22;4.50;;;1.65;;
25567;SDS011;13455;51.480;7.594;2022-07-06T02:52:48;6.85;;;1.90;;
25567;SDS011;13455;51.480;7.594;2022-07-06T02:55:14;4.95;;;1.65;;
25567;SDS011;13455;51.480;7.594;2022-07-06T02:57:40;6.45;;;1.77;;
25567;SDS011;13455;51.480;7.594;2022-07-06T03:00:06;5.72;;;1.65;;
25567;SDS011;13455;51.480;7.594;2022-07-06T03:02:34;3.70;;;1.80;;
25567;SDS011;13455;51.480;7.594;2022-07-06T03:05:00;4.70;;;1.90;;
25567;SDS011;13455;51.480;7.594;2022-07-06T03:07:26;3.17;;;1.70;;
25567;SDS011;13455;51.480;7.594;2022-07-06T03:09:52;4.32;;;1.70;;
25567;SDS011;13455;51.480;7.594;2022-07-06T03:12:18;4.68;;;1.77;;
25567;SDS011;13455;51.480;7.594;2022-07-06T03:14:44;5.18;;;1.75;;
25567;SDS011;13455;51.480;7.594;2022-07-06T03:17:09;5.43;;;1.85;;
25567;SDS011;13455;51.480;7.594;2022-07-06T03:19:35;4.25;;;1.70;;
25567;SDS011;13455;51.480;7.594;2022-07-06T03:22:02;6.00;;;1.63;;
25567;SDS011;13455;51.480;7.594;2022-07-06T03:24:28;5.13;;;1.65;;
25567;SDS011;13455;51.480;7.594;2022-07-06T03:26:54;5.50;;;1.60;;
25567;SDS011;13455;51.480;7.594;2022-07-06T03:29:20;5.45;;;1.50;;
25567;SDS011;13455;51.480;7.594;2022-07-06T03:31:46;5.30;;;1.60;;
25567;SDS011;13455;51.480;7.594;2022-07-06T03:34:12;4.40;;;1.60;;
25567;SDS011;13455;51.480;7.594;2022-07-06T03:36:38;4.65;;;1.70;;
25567;SDS011;13455;51.480;7.594;2022-07-06T03:39:04;4.20;;;1.80;;
25567;SDS011;13455;51.480;7.594;2022-07-06T03:41:30;3.25;;;1.40;;
25567;SDS011;13455;51.480;7.594;2022-07-06T03:43:57;3.42;;;1.67;;
25567;SDS011;13455;51.480;7.594;2022-07-06T03:46:23;4.25;;;1.60;;
25567;SDS011;13455;51.480;7.594;2022-07-06T03:48:49;4.13;;;1.52;;
25567;SDS011;13455;51.480;7.594;2022-07-06T03:51:15;4.13;;;1.67;;
25567;SDS011;13455;51.480;7.594;2022-07-06T03:53:41;4.47;;;1.90;;
25567;SDS011;13455;51.480;7.594;2022-07-06T03:56:07;5.88;;;1.90;;
25567;SDS011;13455;51.480;7.594;2022-07-06T03:58:52;7.40;;;1.90;;
25567;SDS011;13455;51.480;7.594;2022-07-06T04:01:18;5.03;;;2.00;;
25567;SDS011;13455;51.480;7.594;2022-07-06T04:03:44;6.53;;;2.05;;
25567;SDS011;13455;51.480;7.594;2022-07-06T04:06:10;5.82;;;1.90;;
25567;SDS011;13455;51.480;7.594;2022-07-06T04:08:36;6.63;;;2.00;;
25567;SDS011;13455;51.480;7.594;2022-07-06T04:11:02;5.07;;;2.03;;
25567;SDS011;13455;51.480;7.594;2022-07-06T04:13:28;7.78;;;2.50;;
25567;SDS011;13455;51.480;7.594;2022-07-06T04:15:54;7.97;;;2.40;;
25567;SDS011;13455;51.480;7.594;2022-07-06T04:18:20;6.05;;;2.00;;
25567;SDS011;13455;51.480;7.594;2022-07-06T04:20:46;4.97;;;1.90;;
25567;SDS011;13455;51.480;7.594;2022-07-06T04:23:12;4.32;;;2.15;;
25567;SDS011;13455;51.480;7.594;2022-07-06T04:25:38;5.10;;;2.20;;
25567;SDS011;13455;51.480;7.594;2022-07-06T04:28:04;4.68;;;2.30;;
25567;SDS011;13455;51.480;7.594;2022-07-06T04:30:30;5.88;;;2.17;;
25567;SDS011;13455;51.480;7.594;2022-07-06T04:32:56;7.25;;;2.20;;
25567;SDS011;13455;51.480;7.594;2022-07-06T04:35:22;6.40;;;2.58;;
25567;SDS011;13455;51.480;7.594;2022-07-06T04:37:48;5.77;;;2.07;;
25567;SDS011;13455;51.480;7.594;2022-07-06T04:40:14;5.47;;;2.17;;
25567;SDS011;13455;51.480;7.594;2022-07-06T04:42:41;8.27;;;2.20;;
25567;SDS011;13455;51.480;7.594;2022-07-06T04:45:07;5.53;;;2.30;;
25567;SDS011;13455;51.480;7.594;2022-07-06T04:47:34;7.20;;;2.47;;
25567;SDS011;13455;51.480;7.594;2022-07-06T04:50:00;6.93;;;2.40;;
25567;SDS011;13455;51.480;7.594;2022-07-06T04:52:27;7.32;;;2.40;;
25567;SDS011;13455;51.480;7.594;2022-07-06T04:54:56;7.10;;;2.17;;
25567;SDS011;13455;51.480;7.594;2022-07-06T04:57:22;6.53;;;2.20;;
25567;SDS011;13455;51.480;7.594;2022-07-06T04:59:50;6.32;;;2.17;;
25567;SDS011;13455;51.480;7.594;2022-07-06T05:02:16;5.57;;;2.20;;
25567;SDS011;13455;51.480;7.594;2022-07-06T05:04:42;7.72;;;2.50;;
25567;SDS011;13455;51.480;7.594;2022-07-06T05:07:08;5.18;;;2.10;;
25567;SDS011;13455;51.480;7.594;2022-07-06T05:09:34;6.90;;;2.20;;
25567;SDS011;13455;51.480;7.594;2022-07-06T05:12:00;6.43;;;2.20;;
25567;SDS011;13455;51.480;7.594;2022-07-06T05:14:26;5.27;;;2.20;;
25567;SDS011;13455;51.480;7.594;2022-07-06T05:16:52;8.15;;;2.17;;
25567;SDS011;13455;51.480;7.594;2022-07-06T05:19:18;6.55;;;2.10;;
25567;SDS011;13455;51.480;7.594;2022-07-06T05:21:44;6.95;;;2.40;;
25567;SDS011;13455;51.480;7.594;2022-07-06T05:24:10;6.70;;;2.30;;
25567;SDS011;13455;51.480;7.594;2022-07-06T05:26:36;7.25;;;2.22;;
25567;SDS011;13455;51.480;7.594;2022-07-06T05:29:02;6.78;;;2.20;;
25567;SDS011;13455;51.480;7.594;2022-07-06T05:31:28;6.93;;;2.13;;
25567;SDS011;13455;51.480;7.594;2022-07-06T05:33:54;7.05;;;2.28;;
25567;SDS011;13455;51.480;7.594;2022-07-06T05:36:20;6.78;;;2.42;;
25567;SDS011;13455;51.480;7.594;2022-07-06T05:38:46;5.80;;;2.15;;
25567;SDS011;13455;51.480;7.594;2022-07-06T05:41:12;6.87;;;2.23;;
25567;SDS011;13455;51.480;7.594;2022-07-06T05:43:38;7.13;;;2.20;;
25567;SDS011;13455;51.480;7.594;2022-07-06T05:46:04;4.63;;;2.22;;
25567;SDS011;13455;51.480;7.594;2022-07-06T05:48:30;6.25;;;2.30;;
25567;SDS011;13455;51.480;7.594;2022-07-06T05:51:15;6.10;;;2.40;;
25567;SDS011;13455;51.480;7.594;2022-07-06T05:53:41;6.72;;;2.60;;
25567;SDS011;13455;51.480;7.594;2022-07-06T05:56:07;5.20;;;2.38;;
25567;SDS011;13455;51.480;7.594;2022-07-06T05:58:33;6.85;;;2.20;;
25567;SDS011;13455;51.480;7.594;2022-07-06T06:01:00;6.47;;;2.10;;
25567;SDS011;13455;51.480;7.594;2022-07-06T06:03:25;9.48;;;2.33;;
25567;SDS011;13455;51.480;7.594;2022-07-06T06:05:52;5.30;;;2.20;;
25567;SDS011;13455;51.480;7.594;2022-07-06T06:08:18;5.88;;;2.05;;
25567;SDS011;13455;51.480;7.594;2022-07-06T06:10:44;11.65;;;2.10;;
25567;SDS011;13455;51.480;7.594;2022-07-06T06:13:10;8.95;;;2.22;;
25567;SDS011;13455;51.480;7.594;2022-07-06T06:15:36;5.70;;;2.15;;
25567;SDS011;13455;51.480;7.594;2022-07-06T06:18:02;5.95;;;1.90;;
25567;SDS011;13455;51.480;7.594;2022-07-06T06:20:28;5.53;;;2.10;;
25567;SDS011;13455;51.480;7.594;2022-07-06T06:22:55;10.73;;;2.07;;
25567;SDS011;13455;51.480;7.594;2022-07-06T06:25:54;5.57;;;1.90;;
25567;SDS011;13455;51.480;7.594;2022-07-06T06:28:13;6.35;;;1.52;;
25567;SDS011;13455;51.480;7.594;2022-07-06T06:30:39;8.57;;;1.70;;
25567;SDS011;13455;51.480;7.594;2022-07-06T06:33:16;5.55;;;1.58;;
25567;SDS011;13455;51.480;7.594;2022-07-06T06:35:43;5.55;;;1.50;;
25567;SDS011;13455;51.480;7.594;2022-07-06T06:38:09;5.70;;;1.50;;
25567;SDS011;13455;51.480;7.594;2022-07-06T06:40:35;5.95;;;1.50;;
25567;SDS011;13455;51.480;7.594;2022-07-06T06:43:01;7.10;;;1.80;;
25567;SDS011;13455;51.480;7.594;2022-07-06T06:45:28;9.75;;;1.60;;
25567;SDS011;13455;51.480;7.594;2022-07-06T06:47:54;7.35;;;1.67;;
25567;SDS011;13455;51.480;7.594;2022-07-06T06:50:20;5.05;;;1.40;;
25567;SDS011;13455;51.480;7.594;2022-07-06T06:52:47;5.07;;;1.38;;
25567;SDS011;13455;51.480;7.594;2022-07-06T06:55:13;7.32;;;1.60;;
25567;SDS011;13455;51.480;7.594;2022-07-06T06:57:39;5.47;;;1.48;;
25567;SDS011;13455;51.480;7.594;2022-07-06T07:00:05;8.43;;;1.10;;
25567;SDS011;13455;51.480;7.594;2022-07-06T07:02:31;7.13;;;1.20;;
25567;SDS011;13455;51.480;7.594;2022-07-06T07:04:57;5.90;;;1.20;;
25567;SDS011;13455;51.480;7.594;2022-07-06T07:07:23;4.25;;;1.13;;
25567;SDS011;13455;51.480;7.594;2022-07-06T07:09:49;8.05;;;1.42;;
25567;SDS011;13455;51.480;7.594;2022-07-06T07:12:15;6.70;;;0.97;;
25567;SDS011;13455;51.480;7.594;2022-07-06T07:14:42;6.35;;;1.30;;
25567;SDS011;13455;51.480;7.594;2022-07-06T07:17:12;7.50;;;1.17;;
25567;SDS011;13455;51.480;7.594;2022-07-06T07:19:38;4.65;;;1.00;;
25567;SDS011;13455;51.480;7.594;2022-07-06T07:22:04;6.03;;;1.20;;
25567;SDS011;13455;51.480;7.594;2022-07-06T07:24:30;5.50;;;1.10;;
25567;SDS011;13455;51.480;7.594;2022-07-06T07:26:56;4.40;;;1.00;;
25567;SDS011;13455;51.480;7.594;2022-07-06T07:29:22;5.75;;;0.98;;
25567;SDS011;13455;51.480;7.594;2022-07-06T07:31:48;5.32;;;1.02;;
25567;SDS011;13455;51.480;7.594;2022-07-06T07:34:14;9.05;;;1.40;;
25567;SDS011;13455;51.480;7.594;2022-07-06T07:36:41;7.97;;;1.30;;
25567;SDS011;13455;51.480;7.594;2022-07-06T07:39:07;5.10;;;1.00;;
25567;SDS011;13455;51.480;7.594;2022-07-06T07:41:33;6.68;;;0.90;;
25567;SDS011;13455;51.480;7.594;2022-07-06T07:43:59;5.43;;;0.95;;
25567;SDS011;13455;51.480;7.594;2022-07-06T07:46:25;4.10;;;1.00;;
25567;SDS011;13455;51.480;7.594;2022-07-06T07:48:51;3.42;;;1.08;;
25567;SDS011;13455;51.480;7.594;2022-07-06T07:51:16;5.90;;;0.90;;
25567;SDS011;13455;51.480;7.594;2022-07-06T07:53:44;5.15;;;1.00;;
25567;SDS011;13455;51.480;7.594;2022-07-06T07:56:11;4.63;;;0.90;;
25567;SDS011;13455;51.480;7.594;2022-07-06T07:58:37;3.03;;;0.80;;
25567;SDS011;13455;51.480;7.594;2022-07-06T08:01:03;4.70;;;0.97;;
25567;SDS011;13455;51.480;7.594;2022-07-06T08:03:30;4.40;;;0.88;;
25567;SDS011;13455;51.480;7.594;2022-07-06T08:05:56;4.72;;;0.93;;
25567;SDS011;13455;51.480;7.594;2022-07-06T08:08:22;3.10;;;0.70;;
25567;SDS011;13455;51.480;7.594;2022-07-06T08:10:47;4.67;;;0.83;;
25567;SDS011;13455;51.480;7.594;2022-07-06T08:13:15;5.93;;;0.75;;
25567;SDS011;13455;51.480;7.594;2022-07-06T08:15:41;5.38;;;0.93;;
25567;SDS011;13455;51.480;7.594;2022-07-06T08:18:08;3.03;;;0.80;;
25567;SDS011;13455;51.480;7.594;2022-07-06T08:20:36;7.38;;;0.80;;
25567;SDS011;13455;51.480;7.594;2022-07-06T08:23:08;3.72;;;0.70;;
25567;SDS011;13455;51.480;7.594;2022-07-06T08:25:35;4.00;;;0.93;;
25567;SDS011;13455;51.480;7.594;2022-07-06T08:28:01;5.72;;;0.80;;
25567;SDS011;13455;51.480;7.594;2022-07-06T08:30:27;4.35;;;0.75;;
25567;SDS011;13455;51.480;7.594;2022-07-06T08:32:56;4.13;;;0.85;;
25567;SDS011;13455;51.480;7.594;2022-07-06T08:35:22;4.55;;;0.80;;
25567;SDS011;13455;51.480;7.594;2022-07-06T08:37:47;6.13;;;0.90;;
25567;SDS011;13455;51.480;7.594;2022-07-06T08:40:13;6.72;;;1.00;;
25567;SDS011;13455;51.480;7.594;2022-07-06T08:42:39;4.68;;;0.85;;
25567;SDS011;13455;51.480;7.594;2022-07-06T08:45:06;4.60;;;0.70;;
25567;SDS011;13455;51.480;7.594;2022-07-06T08:47:32;3.75;;;0.70;;
25567;SDS011;13455;51.480;7.594;2022-07-06T08:50:01;3.65;;;0.85;;
25567;SDS011;13455;51.480;7.594;2022-07-06T08:52:27;3.20;;;0.80;;
25567;SDS011;13455;51.480;7.594;2022-07-06T08:54:53;4.30;;;0.88;;
25567;SDS011;13455;51.480;7.594;2022-07-06T08:57:19;2.97;;;0.70;;
25567;SDS011;13455;51.480;7.594;2022-07-06T08:59:45;3.70;;;0.90;;
25567;SDS011;13455;51.480;7.594;2022-07-06T09:02:10;4.20;;;0.80;;
25567;SDS011;13455;51.480;7.594;2022-07-06T09:04:38;3.85;;;1.10;;
25567;SDS011;13455;51.480;7.594;2022-07-06T09:07:05;5.57;;;0.80;;
25567;SDS011;13455;51.480;7.594;2022-07-06T09:09:31;3.40;;;0.70;;
25567;SDS011;13455;51.480;7.594;2022-07-06T09:11:57;6.53;;;0.90;;
25567;SDS011;13455;51.480;7.594;2022-07-06T09:14:22;4.45;;;0.70;;
25567;SDS011;13455;51.480;7.594;2022-07-06T09:16:52;3.45;;;0.90;;
25567;SDS011;13455;51.480;7.594;2022-07-06T09:19:31;3.50;;;0.80;;
25567;SDS011;13455;51.480;7.594;2022-07-06T09:21:57;4.47;;;0.90;;
25567;SDS011;13455;51.480;7.594;2022-07-06T09:24:23;4.38;;;0.90;;
25567;SDS011;13455;51.480;7.594;2022-07-06T09:26:51;2.90;;;0.80;;
25567;SDS011;13455;51.480;7.594;2022-07-06T09:29:30;5.15;;;0.93;;
25567;SDS011;13455;51.480;7.594;2022-07-06T09:32:00;4.15;;;1.00;;
25567;SDS011;13455;51.480;7.594;2022-07-06T09:34:46;4.73;;;0.90;;
25567;SDS011;13455;51.480;7.594;2022-07-06T09:37:12;7.70;;;0.85;;
25567;SDS011;13455;51.480;7.594;2022-07-06T09:39:44;4.18;;;0.80;;
25567;SDS011;13455;51.480;7.594;2022-07-06T09:42:10;4.25;;;0.70;;
25567;SDS011;13455;51.480;7.594;2022-07-06T09:44:36;2.65;;;0.80;;
25567;SDS011;13455;51.480;7.594;2022-07-06T09:47:05;9.63;;;1.02;;
25567;SDS011;13455;51.480;7.594;2022-07-06T09:49:32;4.25;;;0.75;;
25567;SDS011;13455;51.480;7.594;2022-07-06T09:51:59;4.67;;;0.70;;
25567;SDS011;13455;51.480;7.594;2022-07-06T09:54:26;4.10;;;0.70;;
25567;SDS011;13455;51.480;7.594;2022-07-06T09:56:53;3.33;;;0.63;;
25567;SDS011;13455;51.480;7.594;2022-07-06T09:59:20;4.60;;;0.90;;
25567;SDS011;13455;51.480;7.594;2022-07-06T10:01:46;4.07;;;0.80;;
25567;SDS011;13455;51.480;7.594;2022-07-06T10:04:13;4.32;;;0.85;;
25567;SDS011;13455;51.480;7.594;2022-07-06T10:06:40;3.85;;;0.77;;
25567;SDS011;13455;51.480;7.594;2022-07-06T10:09:07;4.80;;;0.90;;
25567;SDS011;13455;51.480;7.594;2022-07-06T10:11:40;4.97;;;0.83;;
25567;SDS011;13455;51.480;7.594;2022-07-06T10:14:10;3.92;;;0.90;;
25567;SDS011;13455;51.480;7.594;2022-07-06T10:16:40;4.20;;;0.80;;
25567;SDS011;13455;51.480;7.594;2022-07-06T10:19:06;2.97;;;0.70;;
25567;SDS011;13455;51.480;7.594;2022-07-06T10:21:36;4.27;;;0.50;;
25567;SDS011;13455;51.480;7.594;2022-07-06T10:24:04;4.25;;;0.70;;
25567;SDS011;13455;51.480;7.594;2022-07-06T10:26:31;2.70;;;0.65;;
25567;SDS011;13455;51.480;7.594;2022-07-06T10:28:58;3.72;;;0.90;;
25567;SDS011;13455;51.480;7.594;2022-07-06T10:31:25;2.53;;;0.70;;
25567;SDS011;13455;51.480;7.594;2022-07-06T10:33:54;3.28;;;0.70;;
25567;SDS011;13455;51.480;7.594;2022-07-06T10:36:20;3.30;;;0.60;;
25567;SDS011;13455;51.480;7.594;2022-07-06T10:38:48;5.90;;;0.90;;
25567;SDS011;13455;51.480;7.594;2022-07-06T10:41:15;4.47;;;0.80;;
25567;SDS011;13455;51.480;7.594;2022-07-06T10:43:42;4.70;;;0.85;;
25567;SDS011;13455;51.480;7.594;2022-07-06T10:46:10;6.40;;;1.10;;
25567;SDS011;13455;51.480;7.594;2022-07-06T10:48:46;4.93;;;0.80;;
25567;SDS011;13455;51.480;7.594;2022-07-06T10:51:13;4.15;;;0.70;;
25567;SDS011;13455;51.480;7.594;2022-07-06T10:53:58;3.53;;;0.73;;
25567;SDS011;13455;51.480;7.594;2022-07-06T10:56:35;3.80;;;0.80;;
25567;SDS011;13455;51.480;7.594;2022-07-06T10:59:02;3.15;;;0.80;;
25567;SDS011;13455;51.480;7.594;2022-07-06T11:01:28;3.17;;;0.80;;
25567;SDS011;13455;51.480;7.594;2022-07-06T11:06:24;2.80;;;0.73;;
25567;SDS011;13455;51.480;7.594;2022-07-06T11:11:26;2.63;;;0.70;;
25567;SDS011;13455;51.480;7.594;2022-07-06T11:14:13;3.70;;;0.70;;
25567;SDS011;13455;51.480;7.594;2022-07-06T11:19:15;3.83;;;0.93;;
25567;SDS011;13455;51.480;7.594;2022-07-06T11:21:51;4.13;;;0.70;;
25567;SDS011;13455;51.480;7.594;2022-07-06T11:24:19;3.25;;;0.73;;
25567;SDS011;13455;51.480;7.594;2022-07-06T11:26:49;4.32;;;0.70;;
25567;SDS011;13455;51.480;7.594;2022-07-06T11:29:17;2.83;;;0.80;;
25567;SDS011;13455;51.480;7.594;2022-07-06T11:31:46;3.75;;;0.82;;
25567;SDS011;13455;51.480;7.594;2022-07-06T11:34:13;3.92;;;0.80;;
25567;SDS011;13455;51.480;7.594;2022-07-06T11:36:42;3.60;;;0.77;;
25567;SDS011;13455;51.480;7.594;2022-07-06T11:39:08;2.72;;;0.75;;
25567;SDS011;13455;51.480;7.594;2022-07-06T11:41:34;2.15;;;0.70;;
25567;SDS011;13455;51.480;7.594;2022-07-06T11:44:02;4.07;;;0.70;;
25567;SDS011;13455;51.480;7.594;2022-07-06T11:46:31;3.30;;;0.70;;
25567;SDS011;13455;51.480;7.594;2022-07-06T11:51:28;3.60;;;0.70;;
25567;SDS011;13455;51.480;7.594;2022-07-06T11:53:58;2.30;;;0.68;;
25567;SDS011;13455;51.480;7.594;2022-07-06T11:56:25;3.80;;;0.63;;
25567;SDS011;13455;51.480;7.594;2022-07-06T11:58:55;3.67;;;0.80;;
25567;SDS011;13455;51.480;7.594;2022-07-06T12:01:22;5.83;;;0.73;;
25567;SDS011;13455;51.480;7.594;2022-07-06T12:03:49;4.57;;;0.77;;
25567;SDS011;13455;51.480;7.594;2022-07-06T12:06:19;3.77;;;0.70;;
25567;SDS011;13455;51.480;7.594;2022-07-06T12:08:47;3.92;;;0.80;;
25567;SDS011;13455;51.480;7.594;2022-07-06T12:11:17;5.53;;;0.80;;
25567;SDS011;13455;51.480;7.594;2022-07-06T12:13:45;2.83;;;0.70;;
25567;SDS011;13455;51.480;7.594;2022-07-06T12:16:11;3.85;;;0.88;;
25567;SDS011;13455;51.480;7.594;2022-07-06T12:18:38;3.97;;;0.60;;
25567;SDS011;13455;51.480;7.594;2022-07-06T12:21:08;3.03;;;0.85;;
25567;SDS011;13455;51.480;7.594;2022-07-06T12:23:42;4.80;;;1.00;;
25567;SDS011;13455;51.480;7.594;2022-07-06T12:26:09;3.50;;;0.80;;
25567;SDS011;13455;51.480;7.594;2022-07-06T12:28:36;1.67;;;0.52;;
25567;SDS011;13455;51.480;7.594;2022-07-06T12:31:02;4.33;;;0.63;;
25567;SDS011;13455;51.480;7.594;2022-07-06T12:33:28;2.45;;;0.77;;
25567;SDS011;13455;51.480;7.594;2022-07-06T12:36:08;2.87;;;0.63;;
25567;SDS011;13455;51.480;7.594;2022-07-06T12:38:34;2.58;;;0.70;;
25567;SDS011;13455;51.480;7.594;2022-07-06T12:41:00;4.90;;;0.70;;
25567;SDS011;13455;51.480;7.594;2022-07-06T12:43:34;3.83;;;0.70;;
25567;SDS011;13455;51.480;7.594;2022-07-06T12:46:22;2.83;;;0.70;;
25567;SDS011;13455;51.480;7.594;2022-07-06T12:48:50;2.92;;;0.60;;
25567;SDS011;13455;51.480;7.594;2022-07-06T12:51:16;3.13;;;0.60;;
25567;SDS011;13455;51.480;7.594;2022-07-06T12:53:42;2.47;;;0.50;;
25567;SDS011;13455;51.480;7.594;2022-07-06T12:56:08;3.43;;;0.60;;
25567;SDS011;13455;51.480;7.594;2022-07-06T12:58:35;3.17;;;0.70;;
25567;SDS011;13455;51.480;7.594;2022-07-06T13:01:00;4.00;;;0.90;;
25567;SDS011;13455;51.480;7.594;2022-07-06T13:03:27;2.40;;;0.57;;
25567;SDS011;13455;51.480;7.594;2022-07-06T13:05:52;4.17;;;0.73;;
25567;SDS011;13455;51.480;7.594;2022-07-06T13:08:18;3.47;;;0.60;;
25567;SDS011;13455;51.480;7.594;2022-07-06T13:10:43;3.08;;;0.60;;
25567;SDS011;13455;51.480;7.594;2022-07-06T13:13:10;4.63;;;0.80;;
25567;SDS011;13455;51.480;7.594;2022-07-06T13:15:36;3.43;;;0.70;;
25567;SDS011;13455;51.480;7.594;2022-07-06T13:18:02;4.18;;;0.60;;
25567;SDS011;13455;51.480;7.594;2022-07-06T13:20:30;2.60;;;0.80;;
25567;SDS011;13455;51.480;7.594;2022-07-06T13:22:56;4.30;;;0.80;;
25567;SDS011;13455;51.480;7.594;2022-07-06T13:25:22;3.63;;;0.90;;
25567;SDS011;13455;51.480;7.594;2022-07-06T13:27:48;2.73;;;0.67;;
25567;SDS011;13455;51.480;7.594;2022-07-06T13:30:14;2.08;;;0.60;;
25567;SDS011;13455;51.480;7.594;2022-07-06T13:32:40;2.88;;;0.60;;
25567;SDS011;13455;51.480;7.594;2022-07-06T13:35:06;2.73;;;0.60;;
25567;SDS011;13455;51.480;7.594;2022-07-06T13:37:32;4.57;;;0.80;;
25567;SDS011;13455;51.480;7.594;2022-07-06T13:39:58;3.30;;;0.70;;
25567;SDS011;13455;51.480;7.594;2022-07-06T13:42:24;3.87;;;0.57;;
25567;SDS011;13455;51.480;7.594;2022-07-06T13:44:49;3.78;;;0.80;;
25567;SDS011;13455;51.480;7.594;2022-07-06T13:47:15;2.88;;;0.70;;
25567;SDS011;13455;51.480;7.594;2022-07-06T13:49:41;3.53;;;0.70;;
25567;SDS011;13455;51.480;7.594;2022-07-06T13:52:08;2.45;;;0.60;;
25567;SDS011;13455;51.480;7.594;2022-07-06T13:54:34;3.53;;;0.70;;
25567;SDS011;13455;51.480;7.594;2022-07-06T13:57:03;3.47;;;0.70;;
25567;SDS011;13455;51.480;7.594;2022-07-06T13:59:29;3.60;;;0.80;;
25567;SDS011;13455;51.480;7.594;2022-07-06T14:01:55;3.10;;;0.60;;
25567;SDS011;13455;51.480;7.594;2022-07-06T14:04:21;2.75;;;0.70;;
25567;SDS011;13455;51.480;7.594;2022-07-06T14:06:47;4.40;;;0.70;;
25567;SDS011;13455;51.480;7.594;2022-07-06T14:09:13;2.63;;;0.60;;
25567;SDS011;13455;51.480;7.594;2022-07-06T14:11:39;3.00;;;0.70;;
25567;SDS011;13455;51.480;7.594;2022-07-06T14:14:04;2.83;;;0.60;;
25567;SDS011;13455;51.480;7.594;2022-07-06T14:16:34;3.20;;;0.60;;
25567;SDS011;13455;51.480;7.594;2022-07-06T14:19:00;4.47;;;0.75;;
25567;SDS011;13455;51.480;7.594;2022-07-06T14:21:26;3.88;;;0.80;;
25567;SDS011;13455;51.480;7.594;2022-07-06T14:23:51;2.63;;;0.70;;
25567;SDS011;13455;51.480;7.594;2022-07-06T14:26:17;2.87;;;0.60;;
25567;SDS011;13455;51.480;7.594;2022-07-06T14:28:42;7.32;;;0.70;;
25567;SDS011;13455;51.480;7.594;2022-07-06T14:31:08;1.83;;;0.60;;
25567;SDS011;13455;51.480;7.594;2022-07-06T14:33:34;3.35;;;0.75;;
25567;SDS011;13455;51.480;7.594;2022-07-06T14:35:59;3.40;;;0.70;;
25567;SDS011;13455;51.480;7.594;2022-07-06T14:38:25;3.88;;;0.68;;
25567;SDS011;13455;51.480;7.594;2022-07-06T14:40:52;3.23;;;0.60;;
25567;SDS011;13455;51.480;7.594;2022-07-06T14:43:18;3.30;;;0.85;;
25567;SDS011;13455;51.480;7.594;2022-07-06T14:45:44;2.80;;;0.75;;
25567;SDS011;13455;51.480;7.594;2022-07-06T14:48:13;2.80;;;0.80;;
25567;SDS011;13455;51.480;7.594;2022-07-06T14:50:39;2.60;;;0.80;;
25567;SDS011;13455;51.480;7.594;2022-07-06T14:53:05;2.70;;;0.80;;
25567;SDS011;13455;51.480;7.594;2022-07-06T14:55:32;3.77;;;0.70;;
25567;SDS011;13455;51.480;7.594;2022-07-06T14:57:58;3.92;;;0.82;;
25567;SDS011;13455;51.480;7.594;2022-07-06T15:00:24;3.25;;;0.80;;